Time;durP1;ratioP1;P1;durP2;ratioP2;P2;SDS_P1;SDS_P2;PMS_P1;PMS_P2;Temp;Humidity;BMP_temperature;BMP_pressure;BME280_temperature;BME280_humidity;BME280_pressure;Samples;Min_cycle;Max_cycle;Signal;HPM_P1;HPM_P2
2022/11/01 07:24:45;;;;;;;5.70;3.20;;;;;;;;;;5304378;23;20079;-83
2022/11/01 07:27:10;;;;;;;8.95;3.80;;;;;;;;;;4957110;29;20066;-80
2022/11/01 07:29:36;;;;;;;8.73;3.60;;;;;;;;;;4957127;29;20028;-81
2022/11/01 07:32:02;;;;;;;8.15;3.40;;;;;;;;;;4940177;29;20027;-78
2022/11/01 07:34:27;;;;;;;8.90;3.25;;;;;;;;;;4939927;29;20038;-83
2022/11/01 07:36:52;;;;;;;7.18;3.50;;;;;;;;;;4939907;29;20478;-77
2022/11/01 07:39:18;;;;;;;5.95;3.72;;;;;;;;;;4956994;29;20348;-80
2022/11/01 07:41:43;;;;;;;6.72;3.30;;;;;;;;;;4957227;29;20035;-78
2022/11/01 07:44:09;;;;;;;6.88;3.38;;;;;;;;;;4957833;28;20024;-78
2022/11/01 07:46:34;;;;;;;7.50;3.65;;;;;;;;;;4957012;29;20024;-82
2022/11/01 07:48:59;;;;;;;5.47;3.92;;;;;;;;;;4956764;29;20382;-84
2022/11/01 07:51:25;;;;;;;10.48;3.65;;;;;;;;;;4956982;29;20030;-82
2022/11/01 07:53:50;;;;;;;8.55;3.97;;;;;;;;;;4956963;29;20050;-84
2022/11/01 07:56:16;;;;;;;6.65;3.63;;;;;;;;;;4956991;29;20118;-81
2022/11/01 07:58:42;;;;;;;6.00;3.20;;;;;;;;;;4956917;29;20078;-81
2022/11/01 08:01:09;;;;;;;6.70;3.60;;;;;;;;;;4956973;29;20433;-81
2022/11/01 08:03:34;;;;;;;7.10;3.30;;;;;;;;;;4973545;28;20026;-83
2022/11/01 09:51:37;;;;;;;6.43;3.65;;;;;;;;;;4990468;28;20054;-89
2022/11/01 09:54:03;;;;;;;7.03;3.63;;;;;;;;;;4997722;28;20401;-85
2022/11/01 09:56:45;;;;;;;9.73;4.65;;;;;;;;;;4994104;28;20022;-85
2022/11/01 09:59:51;;;;;;;6.00;3.85;;;;;;;;;;4978394;28;20046;-86
2022/11/01 10:02:41;;;;;;;6.25;3.53;;;;;;;;;;4973940;28;20035;-85
2022/11/01 10:05:25;;;;;;;8.70;3.75;;;;;;;;;;4978250;28;20113;-84
2022/11/01 10:08:17;;;;;;;14.73;7.47;;;;;;;;;;4978040;28;20031;-85
2022/11/01 10:11:15;;;;;;;8.18;4.90;;;;;;;;;;4979276;28;20035;-88
2022/11/01 10:14:05;;;;;;;7.32;3.70;;;;;;;;;;4945410;28;20117;-85
2022/11/01 10:16:36;;;;;;;10.95;6.32;;;;;;;;;;4977644;28;20031;-85
2022/11/01 10:19:17;;;;;;;10.82;6.85;;;;;;;;;;4978259;28;20469;-87
2022/11/01 10:21:52;;;;;;;10.23;5.00;;;;;;;;;;4977742;28;20035;-86
2022/11/01 10:24:27;;;;;;;10.43;4.75;;;;;;;;;;4978149;28;20374;-88
2022/11/01 10:26:58;;;;;;;9.48;4.28;;;;;;;;;;4977504;28;20023;-86
2022/11/01 10:29:59;;;;;;;8.77;4.18;;;;;;;;;;4977955;28;20065;-86
2022/11/01 10:33:01;;;;;;;9.77;4.13;;;;;;;;;;4964829;28;20367;-86
2022/11/01 10:35:50;;;;;;;8.10;4.03;;;;;;;;;;4924631;29;20134;-88
2022/11/01 10:38:35;;;;;;;6.53;4.20;;;;;;;;;;4958584;28;20087;-85
2022/11/01 10:41:22;;;;;;;8.57;4.28;;;;;;;;;;4958327;28;20511;-86
2022/11/01 10:43:59;;;;;;;5.78;3.90;;;;;;;;;;4958366;28;20054;-86
2022/11/01 10:46:32;;;;;;;8.80;4.50;;;;;;;;;;4964969;28;20493;-87
2022/11/01 10:49:11;;;;;;;7.07;3.90;;;;;;;;;;4989334;28;20504;-87
2022/11/01 10:51:40;;;;;;;7.65;4.05;;;;;;;;;;4996727;28;20045;-83
2022/11/01 10:54:15;;;;;;;9.05;3.67;;;;;;;;;;5004592;28;20084;-83
2022/11/01 10:56:44;;;;;;;9.02;4.20;;;;;;;;;;5016284;28;20037;-86
2022/11/01 10:59:23;;;;;;;7.40;4.10;;;;;;;;;;5016337;28;20476;-87
2022/11/01 11:01:51;;;;;;;8.27;4.55;;;;;;;;;;5002400;28;20081;-85
2022/11/01 11:04:21;;;;;;;8.05;4.30;;;;;;;;;;4996555;28;20152;-87
2022/11/01 11:06:47;;;;;;;8.65;3.88;;;;;;;;;;4996482;28;20022;-91
2022/11/01 11:09:24;;;;;;;8.93;4.85;;;;;;;;;;4999697;28;20037;-93
2022/11/01 11:11:52;;;;;;;7.38;4.35;;;;;;;;;;5015866;28;20030;-86
2022/11/01 11:14:19;;;;;;;7.38;3.92;;;;;;;;;;5016405;28;20034;-84
2022/11/01 11:16:52;;;;;;;6.45;3.88;;;;;;;;;;5015726;28;20104;-86
2022/11/01 11:19:30;;;;;;;6.50;4.03;;;;;;;;;;5015925;28;20485;-88
2022/11/01 11:21:57;;;;;;;8.95;4.13;;;;;;;;;;5014757;28;20060;-84
2022/11/01 11:24:33;;;;;;;10.10;4.22;;;;;;;;;;4998801;28;20029;-93
2022/11/01 11:27:01;;;;;;;7.07;4.00;;;;;;;;;;4998251;28;20026;-86
2022/11/01 11:29:47;;;;;;;6.18;4.18;;;;;;;;;;5015756;28;20026;-84
2022/11/01 11:32:24;;;;;;;9.52;3.95;;;;;;;;;;5015735;28;20473;-87
2022/11/01 11:34:57;;;;;;;6.45;3.50;;;;;;;;;;4999084;28;20061;-88
2022/11/01 11:37:26;;;;;;;6.57;3.90;;;;;;;;;;5015508;28;20034;-84
2022/11/01 11:40:11;;;;;;;;;;;;;;;;;;5015976;28;20029;-84
2022/11/01 11:42:36;;;;;;;5.28;4.10;;;;;;;;;;5015604;28;19917;-84
2022/11/01 11:45:21;;;;;;;10.98;4.13;;;;;;;;;;5015610;28;20049;-88
2022/11/01 11:47:47;;;;;;;8.05;3.72;;;;;;;;;;5015282;28;20080;-85
2022/11/01 11:50:24;;;;;;;5.88;3.50;;;;;;;;;;5015220;28;20022;-84
2022/11/01 11:52:59;;;;;;;9.02;3.90;;;;;;;;;;5015821;28;20029;-88
2022/11/01 11:55:46;;;;;;;5.85;3.83;;;;;;;;;;5015381;28;20064;-88
2022/11/01 11:58:40;;;;;;;5.65;3.58;;;;;;;;;;5007800;28;20061;-87
2022/11/01 12:01:10;;;;;;;5.85;3.50;;;;;;;;;;4996460;28;20038;-86
2022/11/01 12:03:48;;;;;;;7.07;3.53;;;;;;;;;;4996343;28;20030;-84
2022/11/01 12:06:20;;;;;;;8.23;3.90;;;;;;;;;;4995490;28;20033;-80
2022/11/01 12:08:54;;;;;;;10.50;4.60;;;;;;;;;;4995652;28;20093;-81
2022/11/01 12:11:22;;;;;;;8.55;3.72;;;;;;;;;;4995257;28;20034;-78
2022/11/01 12:14:23;;;;;;;10.32;4.68;;;;;;;;;;4995763;28;20109;-84
2022/11/01 12:16:49;;;;;;;8.38;4.10;;;;;;;;;;4995644;28;20085;-85
2022/11/01 12:19:24;;;;;;;9.02;4.18;;;;;;;;;;4995327;28;20026;-80
2022/11/01 12:21:50;;;;;;;6.78;3.70;;;;;;;;;;4995406;28;20481;-81
2022/11/01 12:24:39;;;;;;;7.97;3.78;;;;;;;;;;4996112;28;20034;-82
2022/11/01 12:27:12;;;;;;;8.02;3.72;;;;;;;;;;4995241;28;20113;-82
2022/11/01 12:29:46;;;;;;;6.88;3.90;;;;;;;;;;4995025;28;20113;-81
2022/11/01 12:32:20;;;;;;;9.68;3.97;;;;;;;;;;4994991;28;20027;-81
2022/11/01 12:34:49;;;;;;;7.40;3.63;;;;;;;;;;4994932;28;20026;-82
2022/11/01 12:37:24;;;;;;;6.65;3.70;;;;;;;;;;4996748;28;20088;-81
2022/11/01 12:40:20;;;;;;;6.47;3.38;;;;;;;;;;4994750;28;20130;-82
2022/11/01 12:42:46;;;;;;;6.80;3.45;;;;;;;;;;4994646;28;20022;-82
2022/11/01 12:45:31;;;;;;;5.95;3.20;;;;;;;;;;4977106;28;20374;-81
2022/11/01 12:48:02;;;;;;;6.60;3.30;;;;;;;;;;4994475;28;20422;-82
2022/11/01 12:51:05;;;;;;;9.85;3.92;;;;;;;;;;4976892;28;20041;-82
2022/11/01 12:53:41;;;;;;;6.10;3.88;;;;;;;;;;4957355;28;20477;-82
2022/11/01 12:56:07;;;;;;;7.93;4.53;;;;;;;;;;4994423;28;20030;-82
2022/11/01 12:58:32;;;;;;;10.60;5.07;;;;;;;;;;4994620;28;20521;-82
2022/11/01 13:01:13;;;;;;;7.47;5.50;;;;;;;;;;4994735;28;20031;-81
2022/11/01 13:04:03;;;;;;;10.23;5.43;;;;;;;;;;4994677;28;20035;-83
2022/11/01 13:06:53;;;;;;;9.88;4.47;;;;;;;;;;4977010;28;20022;-82
2022/11/01 13:09:28;;;;;;;6.78;4.55;;;;;;;;;;4994382;28;20026;-83
2022/11/01 13:12:04;;;;;;;7.35;4.43;;;;;;;;;;4994632;28;20058;-80
2022/11/01 13:15:02;;;;;;;6.38;4.00;;;;;;;;;;4994491;28;20030;-81
2022/11/01 13:17:46;;;;;;;7.75;3.78;;;;;;;;;;4907105;28;20490;-84
2022/11/01 13:20:43;;;;;;;10.02;4.38;;;;;;;;;;5007844;28;20034;-83
2022/11/01 13:23:14;;;;;;;13.80;5.00;;;;;;;;;;5013908;28;20037;-84
2022/11/01 13:26:01;;;;;;;9.98;5.00;;;;;;;;;;4996355;28;20076;-81
2022/11/01 13:28:41;;;;;;;8.10;3.88;;;;;;;;;;5013521;28;20461;-81
2022/11/01 13:31:16;;;;;;;8.30;4.13;;;;;;;;;;5014403;28;20077;-81
2022/11/01 13:34:10;;;;;;;8.88;4.13;;;;;;;;;;5013944;28;20071;-85
2022/11/01 13:37:12;;;;;;;10.00;4.47;;;;;;;;;;4999824;28;20030;-81
2022/11/01 13:39:45;;;;;;;7.25;3.97;;;;;;;;;;4994907;28;20027;-81
2022/11/01 13:42:14;;;;;;;7.50;3.88;;;;;;;;;;4978317;28;20125;-80
2022/11/01 13:44:47;;;;;;;6.75;4.20;;;;;;;;;;5003669;28;20432;-82
2022/11/01 13:47:16;;;;;;;8.98;4.57;;;;;;;;;;5000567;28;20039;-82
2022/11/01 13:50:16;;;;;;;5.97;3.88;;;;;;;;;;5014536;28;20117;-83
2022/11/01 13:52:55;;;;;;;10.88;4.63;;;;;;;;;;5015552;28;20026;-82
2022/11/01 13:55:40;;;;;;;8.60;4.65;;;;;;;;;;5013966;28;20028;-84
2022/11/01 17:13:17;;;;;;;6.75;3.95;;;;;;;;;;4965173;28;20089;-85
2022/11/01 17:15:49;;;;;;;6.20;4.28;;;;;;;;;;4956929;28;20043;-84
2022/11/01 17:18:20;;;;;;;5.72;4.43;;;;;;;;;;4956791;28;20031;-85
2022/11/01 17:20:48;;;;;;;10.65;4.97;;;;;;;;;;4959903;28;20028;-83
